Isle of Harris, United Kingdom
Current Conditions -  °F | °C
As of 9:20 AM on Tuesday 21 Oct 2014 (Local Time) from EGPO Reporting Station
Rain Showers Rain Showers  
Wind Chill: 34°   Ceiling: Unl
Heat Index: 45°   Visibility: 6mi
Dew Point: 39°   Wind: 36mph
Humidity: 81%   Direction: 310°NW
Pressure: 29.26"   Gusts: 51mph
Location:  57.99°N, 6.75°W
Report Text: EGPO 210820Z 31031G44KT 9999 VCSH FEW018CB SCT024 07/04 Q0991
Loading
Personal Weather Stations






























Interactive Weather Map
Tropical Storm Tracking
New forecast layout! Learn more

10-Day Weather Forecast

Advertisements
Track Severe Weather on mobile